sensor_id;sensor_type;location;lat;lon;timestamp;temperature;humidity
9057;DHT22;4563;54.756;9.400;2022-09-01T00:01:47;19.80;56.40
9057;DHT22;4563;54.756;9.400;2022-09-01T00:04:16;19.70;56.40
9057;DHT22;4563;54.756;9.400;2022-09-01T00:06:45;19.70;56.40
9057;DHT22;4563;54.756;9.400;2022-09-01T00:09:16;19.70;56.40
9057;DHT22;4563;54.756;9.400;2022-09-01T00:11:46;19.70;56.40
9057;DHT22;4563;54.756;9.400;2022-09-01T00:14:14;19.70;56.40
9057;DHT22;4563;54.756;9.400;2022-09-01T00:16:41;19.70;56.50
9057;DHT22;4563;54.756;9.400;2022-09-01T00:19:09;19.70;56.50
9057;DHT22;4563;54.756;9.400;2022-09-01T00:21:39;19.60;56.50
9057;DHT22;4563;54.756;9.400;2022-09-01T00:24:08;19.60;56.50
9057;DHT22;4563;54.756;9.400;2022-09-01T00:26:35;19.60;56.50
9057;DHT22;4563;54.756;9.400;2022-09-01T00:29:02;19.60;56.60
9057;DHT22;4563;54.756;9.400;2022-09-01T00:31:29;19.60;56.70
9057;DHT22;4563;54.756;9.400;2022-09-01T00:33:56;19.60;56.70
9057;DHT22;4563;54.756;9.400;2022-09-01T00:36:24;19.60;56.60
9057;DHT22;4563;54.756;9.400;2022-09-01T00:38:51;19.60;56.70
9057;DHT22;4563;54.756;9.400;2022-09-01T00:41:20;19.60;56.70
9057;DHT22;4563;54.756;9.400;2022-09-01T00:43:50;19.50;56.70
9057;DHT22;4563;54.756;9.400;2022-09-01T00:46:19;19.50;56.70
9057;DHT22;4563;54.756;9.400;2022-09-01T00:48:46;19.50;56.80
9057;DHT22;4563;54.756;9.400;2022-09-01T00:51:16;19.50;56.80
9057;DHT22;4563;54.756;9.400;2022-09-01T00:53:45;19.50;56.80
9057;DHT22;4563;54.756;9.400;2022-09-01T00:56:12;19.50;56.90
9057;DHT22;4563;54.756;9.400;2022-09-01T00:58:40;19.50;56.90
9057;DHT22;4563;54.756;9.400;2022-09-01T01:01:08;19.50;56.90
9057;DHT22;4563;54.756;9.400;2022-09-01T01:03:36;19.50;57.00
9057;DHT22;4563;54.756;9.400;2022-09-01T01:06:06;19.50;57.00
9057;DHT22;4563;54.756;9.400;2022-09-01T01:08:37;19.40;57.00
9057;DHT22;4563;54.756;9.400;2022-09-01T01:11:09;19.40;57.00
9057;DHT22;4563;54.756;9.400;2022-09-01T01:13:51;19.40;57.10
9057;DHT22;4563;54.756;9.400;2022-09-01T01:16:19;19.40;57.10
9057;DHT22;4563;54.756;9.400;2022-09-01T01:18:47;19.40;57.10
9057;DHT22;4563;54.756;9.400;2022-09-01T01:21:18;19.40;57.10
9057;DHT22;4563;54.756;9.400;2022-09-01T01:24:15;19.40;57.30
9057;DHT22;4563;54.756;9.400;2022-09-01T01:26:43;19.40;57.20
9057;DHT22;4563;54.756;9.400;2022-09-01T01:29:10;19.30;57.10
9057;DHT22;4563;54.756;9.400;2022-09-01T01:31:37;19.30;57.20
9057;DHT22;4563;54.756;9.400;2022-09-01T01:34:04;19.30;57.20
9057;DHT22;4563;54.756;9.400;2022-09-01T01:36:35;19.30;57.30
9057;DHT22;4563;54.756;9.400;2022-09-01T01:39:05;19.30;57.30
9057;DHT22;4563;54.756;9.400;2022-09-01T01:41:35;19.30;57.40
9057;DHT22;4563;54.756;9.400;2022-09-01T01:44:05;19.20;57.30
9057;DHT22;4563;54.756;9.400;2022-09-01T01:46:34;19.20;57.30
9057;DHT22;4563;54.756;9.400;2022-09-01T01:49:02;19.20;57.40
9057;DHT22;4563;54.756;9.400;2022-09-01T01:51:29;19.20;57.40
9057;DHT22;4563;54.756;9.400;2022-09-01T01:53:58;19.20;57.40
9057;DHT22;4563;54.756;9.400;2022-09-01T01:56:31;19.20;57.50
9057;DHT22;4563;54.756;9.400;2022-09-01T01:59:01;19.20;57.50
9057;DHT22;4563;54.756;9.400;2022-09-01T02:01:29;19.20;57.50
9057;DHT22;4563;54.756;9.400;2022-09-01T02:03:57;19.20;57.50
9057;DHT22;4563;54.756;9.400;2022-09-01T02:06:26;19.20;57.50
9057;DHT22;4563;54.756;9.400;2022-09-01T02:08:56;19.10;57.50
9057;DHT22;4563;54.756;9.400;2022-09-01T02:11:24;19.10;57.50
9057;DHT22;4563;54.756;9.400;2022-09-01T02:13:52;19.10;57.50
9057;DHT22;4563;54.756;9.400;2022-09-01T02:16:22;19.10;57.60
9057;DHT22;4563;54.756;9.400;2022-09-01T02:18:49;19.10;57.70
9057;DHT22;4563;54.756;9.400;2022-09-01T02:21:21;19.10;57.60
9057;DHT22;4563;54.756;9.400;2022-09-01T02:23:51;19.00;57.60
9057;DHT22;4563;54.756;9.400;2022-09-01T02:26:22;19.00;57.60
9057;DHT22;4563;54.756;9.400;2022-09-01T02:28:56;19.00;57.60
9057;DHT22;4563;54.756;9.400;2022-09-01T02:31:28;19.10;57.70
9057;DHT22;4563;54.756;9.400;2022-09-01T02:33:56;19.00;57.60
9057;DHT22;4563;54.756;9.400;2022-09-01T02:36:24;19.00;57.70
9057;DHT22;4563;54.756;9.400;2022-09-01T02:38:52;18.90;57.70
9057;DHT22;4563;54.756;9.400;2022-09-01T02:41:19;19.00;57.80
9057;DHT22;4563;54.756;9.400;2022-09-01T02:43:48;18.90;57.80
9057;DHT22;4563;54.756;9.400;2022-09-01T02:46:15;18.90;57.80
9057;DHT22;4563;54.756;9.400;2022-09-01T02:48:48;18.90;57.80
9057;DHT22;4563;54.756;9.400;2022-09-01T02:51:18;18.90;57.90
9057;DHT22;4563;54.756;9.400;2022-09-01T02:53:46;18.90;58.00
9057;DHT22;4563;54.756;9.400;2022-09-01T02:56:18;18.80;58.50
9057;DHT22;4563;54.756;9.400;2022-09-01T02:58:48;18.80;57.90
9057;DHT22;4563;54.756;9.400;2022-09-01T03:01:18;18.80;57.90
9057;DHT22;4563;54.756;9.400;2022-09-01T03:03:49;18.80;58.00
9057;DHT22;4563;54.756;9.400;2022-09-01T03:13:07;18.70;57.90
9057;DHT22;4563;54.756;9.400;2022-09-01T03:15:35;18.70;58.00
9057;DHT22;4563;54.756;9.400;2022-09-01T03:18:04;18.60;58.00
9057;DHT22;4563;54.756;9.400;2022-09-01T03:20:35;18.60;58.10
9057;DHT22;4563;54.756;9.400;2022-09-01T03:23:04;18.60;58.10
9057;DHT22;4563;54.756;9.400;2022-09-01T03:25:33;18.60;58.10
9057;DHT22;4563;54.756;9.400;2022-09-01T03:28:00;18.60;58.20
9057;DHT22;4563;54.756;9.400;2022-09-01T03:30:28;18.60;58.10
9057;DHT22;4563;54.756;9.400;2022-09-01T03:32:55;18.60;58.30
9057;DHT22;4563;54.756;9.400;2022-09-01T03:35:22;18.60;58.30
9057;DHT22;4563;54.756;9.400;2022-09-01T03:37:51;18.60;58.30
9057;DHT22;4563;54.756;9.400;2022-09-01T03:40:20;18.60;58.30
9057;DHT22;4563;54.756;9.400;2022-09-01T03:42:47;18.50;58.20
9057;DHT22;4563;54.756;9.400;2022-09-01T03:45:14;18.50;58.30
9057;DHT22;4563;54.756;9.400;2022-09-01T03:47:45;18.50;58.40
9057;DHT22;4563;54.756;9.400;2022-09-01T03:50:14;18.50;58.60
9057;DHT22;4563;54.756;9.400;2022-09-01T03:52:45;18.50;58.70
9057;DHT22;4563;54.756;9.400;2022-09-01T03:55:15;18.50;58.60
9057;DHT22;4563;54.756;9.400;2022-09-01T03:57:47;18.40;58.60
9057;DHT22;4563;54.756;9.400;2022-09-01T04:00:15;18.40;58.60
9057;DHT22;4563;54.756;9.400;2022-09-01T04:02:45;18.40;58.60
9057;DHT22;4563;54.756;9.400;2022-09-01T04:05:13;18.40;58.60
9057;DHT22;4563;54.756;9.400;2022-09-01T04:07:40;18.40;58.50
9057;DHT22;4563;54.756;9.400;2022-09-01T04:10:14;18.40;58.60
9057;DHT22;4563;54.756;9.400;2022-09-01T04:12:42;18.30;58.50
9057;DHT22;4563;54.756;9.400;2022-09-01T04:15:10;18.30;58.50
9057;DHT22;4563;54.756;9.400;2022-09-01T04:17:38;18.30;58.60
9057;DHT22;4563;54.756;9.400;2022-09-01T04:20:23;18.30;58.60
9057;DHT22;4563;54.756;9.400;2022-09-01T04:22:50;18.30;58.70
9057;DHT22;4563;54.756;9.400;2022-09-01T04:25:19;18.30;58.70
9057;DHT22;4563;54.756;9.400;2022-09-01T04:27:48;18.30;58.80
9057;DHT22;4563;54.756;9.400;2022-09-01T04:30:15;18.20;58.80
9057;DHT22;4563;54.756;9.400;2022-09-01T04:32:42;18.20;58.80
9057;DHT22;4563;54.756;9.400;2022-09-01T04:35:11;18.20;58.80
9057;DHT22;4563;54.756;9.400;2022-09-01T04:37:41;18.20;58.80
9057;DHT22;4563;54.756;9.400;2022-09-01T04:40:12;18.20;58.90
9057;DHT22;4563;54.756;9.400;2022-09-01T04:42:41;18.20;58.80
9057;DHT22;4563;54.756;9.400;2022-09-01T04:45:09;18.10;58.80
9057;DHT22;4563;54.756;9.400;2022-09-01T04:47:37;18.10;58.80
9057;DHT22;4563;54.756;9.400;2022-09-01T04:50:08;18.10;58.80
9057;DHT22;4563;54.756;9.400;2022-09-01T04:52:39;18.10;58.90
9057;DHT22;4563;54.756;9.400;2022-09-01T04:55:07;18.10;58.90
9057;DHT22;4563;54.756;9.400;2022-09-01T04:57:43;18.00;58.80
9057;DHT22;4563;54.756;9.400;2022-09-01T05:00:13;18.00;58.80
9057;DHT22;4563;54.756;9.400;2022-09-01T05:02:47;18.00;58.90
9057;DHT22;4563;54.756;9.400;2022-09-01T05:05:17;18.00;58.90
9057;DHT22;4563;54.756;9.400;2022-09-01T05:07:44;17.90;58.80
9057;DHT22;4563;54.756;9.400;2022-09-01T05:10:11;17.90;58.90
9057;DHT22;4563;54.756;9.400;2022-09-01T05:12:38;17.90;58.90
9057;DHT22;4563;54.756;9.400;2022-09-01T05:15:08;17.90;59.00
9057;DHT22;4563;54.756;9.400;2022-09-01T05:17:35;17.90;59.00
9057;DHT22;4563;54.756;9.400;2022-09-01T05:20:03;17.90;59.00
9057;DHT22;4563;54.756;9.400;2022-09-01T05:22:34;17.90;59.20
9057;DHT22;4563;54.756;9.400;2022-09-01T05:25:07;17.90;59.10
9057;DHT22;4563;54.756;9.400;2022-09-01T05:27:39;17.90;59.20
9057;DHT22;4563;54.756;9.400;2022-09-01T05:30:09;17.90;59.40
9057;DHT22;4563;54.756;9.400;2022-09-01T05:32:36;17.90;59.40
9057;DHT22;4563;54.756;9.400;2022-09-01T05:35:05;17.90;59.40
9057;DHT22;4563;54.756;9.400;2022-09-01T05:37:33;17.90;59.60
9057;DHT22;4563;54.756;9.400;2022-09-01T05:40:03;17.90;59.80
9057;DHT22;4563;54.756;9.400;2022-09-01T05:42:31;17.90;59.90
9057;DHT22;4563;54.756;9.400;2022-09-01T05:44:58;17.90;59.90
9057;DHT22;4563;54.756;9.400;2022-09-01T05:47:28;17.90;59.90
9057;DHT22;4563;54.756;9.400;2022-09-01T05:49:55;17.90;60.10
9057;DHT22;4563;54.756;9.400;2022-09-01T05:52:23;17.90;60.00
9057;DHT22;4563;54.756;9.400;2022-09-01T05:54:51;18.00;60.30
9057;DHT22;4563;54.756;9.400;2022-09-01T05:57:18;18.00;60.60
9057;DHT22;4563;54.756;9.400;2022-09-01T05:59:45;18.00;60.60
9057;DHT22;4563;54.756;9.400;2022-09-01T06:02:19;18.00;60.70
9057;DHT22;4563;54.756;9.400;2022-09-01T06:04:47;18.00;61.00
9057;DHT22;4563;54.756;9.400;2022-09-01T06:07:16;18.10;61.20
9057;DHT22;4563;54.756;9.400;2022-09-01T06:09:45;18.10;61.50
9057;DHT22;4563;54.756;9.400;2022-09-01T06:12:14;18.20;61.70
9057;DHT22;4563;54.756;9.400;2022-09-01T06:14:49;18.20;61.80
9057;DHT22;4563;54.756;9.400;2022-09-01T06:17:18;18.20;61.80
9057;DHT22;4563;54.756;9.400;2022-09-01T06:19:50;18.30;62.00
9057;DHT22;4563;54.756;9.400;2022-09-01T06:22:19;18.30;62.00
9057;DHT22;4563;54.756;9.400;2022-09-01T06:24:48;18.30;62.00
9057;DHT22;4563;54.756;9.400;2022-09-01T06:27:16;18.30;61.90
9057;DHT22;4563;54.756;9.400;2022-09-01T06:29:45;18.40;62.00
9057;DHT22;4563;54.756;9.400;2022-09-01T06:32:18;18.40;62.10
9057;DHT22;4563;54.756;9.400;2022-09-01T06:34:45;18.50;62.10
9057;DHT22;4563;54.756;9.400;2022-09-01T06:37:17;18.50;62.00
9057;DHT22;4563;54.756;9.400;2022-09-01T06:39:48;18.50;62.10
9057;DHT22;4563;54.756;9.400;2022-09-01T06:42:16;18.60;62.20
9057;DHT22;4563;54.756;9.400;2022-09-01T06:44:44;18.60;62.00
9057;DHT22;4563;54.756;9.400;2022-09-01T06:47:11;18.60;62.10
9057;DHT22;4563;54.756;9.400;2022-09-01T06:49:39;18.70;62.10
9057;DHT22;4563;54.756;9.400;2022-09-01T06:52:17;18.70;62.00
9057;DHT22;4563;54.756;9.400;2022-09-01T06:54:45;18.80;61.50
9057;DHT22;4563;54.756;9.400;2022-09-01T06:57:12;18.80;61.90
9057;DHT22;4563;54.756;9.400;2022-09-01T06:59:39;18.80;61.70
9057;DHT22;4563;54.756;9.400;2022-09-01T07:02:06;18.90;61.70
9057;DHT22;4563;54.756;9.400;2022-09-01T07:04:33;18.90;61.70
9057;DHT22;4563;54.756;9.400;2022-09-01T07:07:03;18.90;61.60
9057;DHT22;4563;54.756;9.400;2022-09-01T07:09:33;19.00;61.70
9057;DHT22;4563;54.756;9.400;2022-09-01T07:11:59;19.10;61.70
9057;DHT22;4563;54.756;9.400;2022-09-01T07:14:29;19.00;61.60
9057;DHT22;4563;54.756;9.400;2022-09-01T07:16:56;19.10;61.70
9057;DHT22;4563;54.756;9.400;2022-09-01T07:19:24;19.10;61.60
9057;DHT22;4563;54.756;9.400;2022-09-01T07:21:52;19.20;62.40
9057;DHT22;4563;54.756;9.400;2022-09-01T07:24:20;19.20;61.50
9057;DHT22;4563;54.756;9.400;2022-09-01T07:26:48;19.30;61.30
9057;DHT22;4563;54.756;9.400;2022-09-01T07:29:17;19.30;61.20
9057;DHT22;4563;54.756;9.400;2022-09-01T07:31:47;19.40;61.20
9057;DHT22;4563;54.756;9.400;2022-09-01T07:34:15;19.40;61.10
9057;DHT22;4563;54.756;9.400;2022-09-01T07:36:43;19.40;61.10
9057;DHT22;4563;54.756;9.400;2022-09-01T07:39:11;19.50;61.20
9057;DHT22;4563;54.756;9.400;2022-09-01T07:41:39;19.50;61.10
9057;DHT22;4563;54.756;9.400;2022-09-01T07:44:08;19.60;61.20
9057;DHT22;4563;54.756;9.400;2022-09-01T07:46:40;19.60;61.10
9057;DHT22;4563;54.756;9.400;2022-09-01T07:49:08;19.70;61.20
9057;DHT22;4563;54.756;9.400;2022-09-01T07:51:35;19.70;61.10
9057;DHT22;4563;54.756;9.400;2022-09-01T07:54:02;19.80;61.10
9057;DHT22;4563;54.756;9.400;2022-09-01T07:56:29;19.80;61.10
9057;DHT22;4563;54.756;9.400;2022-09-01T07:58:56;19.90;61.20
9057;DHT22;4563;54.756;9.400;2022-09-01T08:01:26;19.90;61.00
9057;DHT22;4563;54.756;9.400;2022-09-01T08:03:55;20.00;61.00
9057;DHT22;4563;54.756;9.400;2022-09-01T08:06:25;20.10;61.00
9057;DHT22;4563;54.756;9.400;2022-09-01T08:08:55;20.10;61.00
9057;DHT22;4563;54.756;9.400;2022-09-01T08:11:24;20.10;60.70
9057;DHT22;4563;54.756;9.400;2022-09-01T08:13:54;20.20;60.60
9057;DHT22;4563;54.756;9.400;2022-09-01T08:16:27;20.30;61.00
9057;DHT22;4563;54.756;9.400;2022-09-01T08:18:55;20.40;60.20
9057;DHT22;4563;54.756;9.400;2022-09-01T08:21:23;20.40;59.90
9057;DHT22;4563;54.756;9.400;2022-09-01T08:23:52;20.50;59.70
9057;DHT22;4563;54.756;9.400;2022-09-01T08:26:23;20.50;59.50
9057;DHT22;4563;54.756;9.400;2022-09-01T08:28:51;20.60;59.20
9057;DHT22;4563;54.756;9.400;2022-09-01T08:31:19;20.60;59.30
9057;DHT22;4563;54.756;9.400;2022-09-01T08:33:51;20.70;59.10
9057;DHT22;4563;54.756;9.400;2022-09-01T08:36:18;20.70;58.80
9057;DHT22;4563;54.756;9.400;2022-09-01T08:38:45;20.70;58.70
9057;DHT22;4563;54.756;9.400;2022-09-01T08:41:16;20.80;58.50
9057;DHT22;4563;54.756;9.400;2022-09-01T08:43:51;20.80;58.10
9057;DHT22;4563;54.756;9.400;2022-09-01T08:46:25;20.90;57.90
9057;DHT22;4563;54.756;9.400;2022-09-01T08:48:55;20.90;57.80
9057;DHT22;4563;54.756;9.400;2022-09-01T08:51:26;20.90;57.60
9057;DHT22;4563;54.756;9.400;2022-09-01T08:54:00;21.00;57.50
9057;DHT22;4563;54.756;9.400;2022-09-01T08:56:29;21.00;57.30
9057;DHT22;4563;54.756;9.400;2022-09-01T08:58:57;21.10;57.30
9057;DHT22;4563;54.756;9.400;2022-09-01T09:01:29;21.10;57.10
9057;DHT22;4563;54.756;9.400;2022-09-01T09:04:16;21.10;56.90
9057;DHT22;4563;54.756;9.400;2022-09-01T09:06:52;21.20;56.90
9057;DHT22;4563;54.756;9.400;2022-09-01T09:09:29;21.30;56.80
9057;DHT22;4563;54.756;9.400;2022-09-01T09:12:08;21.40;56.90
9057;DHT22;4563;54.756;9.400;2022-09-01T09:15:06;21.40;56.80
9057;DHT22;4563;54.756;9.400;2022-09-01T09:17:39;21.60;57.20
9057;DHT22;4563;54.756;9.400;2022-09-01T09:20:10;21.60;56.70
9057;DHT22;4563;54.756;9.400;2022-09-01T09:22:37;21.80;56.90
9057;DHT22;4563;54.756;9.400;2022-09-01T09:25:08;21.80;56.90
9057;DHT22;4563;54.756;9.400;2022-09-01T09:27:36;21.90;56.80
9057;DHT22;4563;54.756;9.400;2022-09-01T09:30:06;22.00;56.80
9057;DHT22;4563;54.756;9.400;2022-09-01T09:32:49;22.10;56.90
9057;DHT22;4563;54.756;9.400;2022-09-01T09:35:22;22.30;58.00
9057;DHT22;4563;54.756;9.400;2022-09-01T09:37:49;22.30;57.90
9057;DHT22;4563;54.756;9.400;2022-09-01T09:40:18;22.40;57.00
9057;DHT22;4563;54.756;9.400;2022-09-01T09:43:02;22.60;57.20
9057;DHT22;4563;54.756;9.400;2022-09-01T09:45:31;22.70;60.00
9057;DHT22;4563;54.756;9.400;2022-09-01T09:48:03;22.80;57.60
9057;DHT22;4563;54.756;9.400;2022-09-01T09:50:34;23.00;57.80
9057;DHT22;4563;54.756;9.400;2022-09-01T09:53:14;23.20;57.90
9057;DHT22;4563;54.756;9.400;2022-09-01T09:55:52;23.40;60.60
9057;DHT22;4563;54.756;9.400;2022-09-01T09:58:21;23.60;60.50
9057;DHT22;4563;54.756;9.400;2022-09-01T10:00:59;23.70;57.70
9057;DHT22;4563;54.756;9.400;2022-09-01T10:03:38;24.00;59.80
9057;DHT22;4563;54.756;9.400;2022-09-01T10:06:12;24.20;60.20
9057;DHT22;4563;54.756;9.400;2022-09-01T10:08:41;24.50;59.30
9057;DHT22;4563;54.756;9.400;2022-09-01T10:11:11;24.80;57.80
9057;DHT22;4563;54.756;9.400;2022-09-01T10:13:51;25.00;57.50
9057;DHT22;4563;54.756;9.400;2022-09-01T10:16:24;25.30;57.40
9057;DHT22;4563;54.756;9.400;2022-09-01T10:18:52;25.60;58.10
9057;DHT22;4563;54.756;9.400;2022-09-01T10:21:30;25.90;56.20
9057;DHT22;4563;54.756;9.400;2022-09-01T10:23:58;26.20;57.30
9057;DHT22;4563;54.756;9.400;2022-09-01T10:26:31;26.40;55.20
9057;DHT22;4563;54.756;9.400;2022-09-01T10:29:05;26.80;56.60
9057;DHT22;4563;54.756;9.400;2022-09-01T10:31:34;27.00;56.50
9057;DHT22;4563;54.756;9.400;2022-09-01T10:34:03;27.30;53.70
9057;DHT22;4563;54.756;9.400;2022-09-01T10:36:34;27.60;53.90
9057;DHT22;4563;54.756;9.400;2022-09-01T10:39:01;27.80;54.40
9057;DHT22;4563;54.756;9.400;2022-09-01T10:41:46;28.00;52.60
9057;DHT22;4563;54.756;9.400;2022-09-01T10:44:20;28.30;59.30
9057;DHT22;4563;54.756;9.400;2022-09-01T10:46:48;28.40;53.40
9057;DHT22;4563;54.756;9.400;2022-09-01T10:52:10;28.80;53.80
9057;DHT22;4563;54.756;9.400;2022-09-01T10:55:00;29.00;50.60
9057;DHT22;4563;54.756;9.400;2022-09-01T10:57:43;29.10;51.40
9057;DHT22;4563;54.756;9.400;2022-09-01T11:03:50;29.40;56.70
9057;DHT22;4563;54.756;9.400;2022-09-01T11:09:31;29.60;54.60
9057;DHT22;4563;54.756;9.400;2022-09-01T11:12:34;29.60;50.10
9057;DHT22;4563;54.756;9.400;2022-09-01T11:15:05;29.80;56.30
9057;DHT22;4563;54.756;9.400;2022-09-01T11:17:35;29.80;47.50
9057;DHT22;4563;54.756;9.400;2022-09-01T11:20:07;29.90;48.20
9057;DHT22;4563;54.756;9.400;2022-09-01T11:22:36;30.00;47.40
9057;DHT22;4563;54.756;9.400;2022-09-01T11:31:24;30.50;52.50
9057;DHT22;4563;54.756;9.400;2022-09-01T11:36:51;30.80;53.40
9057;DHT22;4563;54.756;9.400;2022-09-01T11:39:34;31.00;45.90
9057;DHT22;4563;54.756;9.400;2022-09-01T11:42:06;31.20;51.70
9057;DHT22;4563;54.756;9.400;2022-09-01T11:44:38;31.40;45.60
9057;DHT22;4563;54.756;9.400;2022-09-01T11:47:10;31.60;44.60
9057;DHT22;4563;54.756;9.400;2022-09-01T11:49:50;31.80;45.40
9057;DHT22;4563;54.756;9.400;2022-09-01T11:52:20;32.00;46.70
9057;DHT22;4563;54.756;9.400;2022-09-01T11:54:47;32.20;43.10
9057;DHT22;4563;54.756;9.400;2022-09-01T11:57:29;32.30;42.60
9057;DHT22;4563;54.756;9.400;2022-09-01T11:59:58;32.60;50.90
9057;DHT22;4563;54.756;9.400;2022-09-01T12:02:28;32.70;42.10
9057;DHT22;4563;54.756;9.400;2022-09-01T12:04:59;32.90;42.60
9057;DHT22;4563;54.756;9.400;2022-09-01T12:07:43;33.10;41.50
9057;DHT22;4563;54.756;9.400;2022-09-01T12:10:17;33.30;50.70
9057;DHT22;4563;54.756;9.400;2022-09-01T12:12:45;33.40;44.70
9057;DHT22;4563;54.756;9.400;2022-09-01T12:15:18;33.60;40.90
9057;DHT22;4563;54.756;9.400;2022-09-01T12:17:47;33.70;43.30
9057;DHT22;4563;54.756;9.400;2022-09-01T12:20:27;33.90;41.00
9057;DHT22;4563;54.756;9.400;2022-09-01T12:22:55;33.90;47.10
9057;DHT22;4563;54.756;9.400;2022-09-01T12:25:25;34.10;39.90
9057;DHT22;4563;54.756;9.400;2022-09-01T12:27:53;34.10;40.10
9057;DHT22;4563;54.756;9.400;2022-09-01T12:30:21;34.20;39.20
9057;DHT22;4563;54.756;9.400;2022-09-01T12:32:50;34.30;38.80
9057;DHT22;4563;54.756;9.400;2022-09-01T12:35:21;34.40;39.10
9057;DHT22;4563;54.756;9.400;2022-09-01T12:37:48;34.40;40.00
9057;DHT22;4563;54.756;9.400;2022-09-01T12:40:22;34.50;38.80
9057;DHT22;4563;54.756;9.400;2022-09-01T12:42:51;34.50;40.40
9057;DHT22;4563;54.756;9.400;2022-09-01T12:45:37;34.60;38.10
9057;DHT22;4563;54.756;9.400;2022-09-01T12:48:06;34.60;46.60
9057;DHT22;4563;54.756;9.400;2022-09-01T12:50:49;34.70;39.10
9057;DHT22;4563;54.756;9.400;2022-09-01T12:53:28;34.70;38.50
9057;DHT22;4563;54.756;9.400;2022-09-01T12:56:22;34.70;44.10
9057;DHT22;4563;54.756;9.400;2022-09-01T12:58:55;34.80;47.80
9057;DHT22;4563;54.756;9.400;2022-09-01T13:01:31;34.80;38.20
9057;DHT22;4563;54.756;9.400;2022-09-01T13:04:10;34.80;37.60
9057;DHT22;4563;54.756;9.400;2022-09-01T13:06:37;34.80;42.10
9057;DHT22;4563;54.756;9.400;2022-09-01T13:09:06;34.80;37.20
9057;DHT22;4563;54.756;9.400;2022-09-01T13:11:33;34.80;37.10
9057;DHT22;4563;54.756;9.400;2022-09-01T13:14:00;34.80;36.70
9057;DHT22;4563;54.756;9.400;2022-09-01T13:16:27;34.70;36.50
9057;DHT22;4563;54.756;9.400;2022-09-01T13:18:53;34.70;36.40
9057;DHT22;4563;54.756;9.400;2022-09-01T13:21:22;34.70;36.40
9057;DHT22;4563;54.756;9.400;2022-09-01T13:23:49;34.70;36.00
9057;DHT22;4563;54.756;9.400;2022-09-01T13:26:16;34.60;36.20
9057;DHT22;4563;54.756;9.400;2022-09-01T13:28:43;34.50;36.20
9057;DHT22;4563;54.756;9.400;2022-09-01T13:31:10;34.40;36.00
9057;DHT22;4563;54.756;9.400;2022-09-01T13:33:37;34.30;36.00
9057;DHT22;4563;54.756;9.400;2022-09-01T13:36:04;34.20;35.80
9057;DHT22;4563;54.756;9.400;2022-09-01T13:38:33;34.10;35.90
9057;DHT22;4563;54.756;9.400;2022-09-01T13:41:00;33.90;35.90
9057;DHT22;4563;54.756;9.400;2022-09-01T13:43:27;33.70;36.00
9057;DHT22;4563;54.756;9.400;2022-09-01T13:45:56;33.60;36.10
9057;DHT22;4563;54.756;9.400;2022-09-01T13:48:23;33.40;36.30
9057;DHT22;4563;54.756;9.400;2022-09-01T13:50:51;33.30;36.20
9057;DHT22;4563;54.756;9.400;2022-09-01T13:53:18;33.10;36.30
9057;DHT22;4563;54.756;9.400;2022-09-01T13:55:47;33.00;36.50
9057;DHT22;4563;54.756;9.400;2022-09-01T13:58:16;32.80;36.70
9057;DHT22;4563;54.756;9.400;2022-09-01T14:00:44;32.60;36.80
9057;DHT22;4563;54.756;9.400;2022-09-01T14:03:13;32.50;36.90
9057;DHT22;4563;54.756;9.400;2022-09-01T14:05:43;32.30;37.10
9057;DHT22;4563;54.756;9.400;2022-09-01T14:08:11;32.10;37.20
9057;DHT22;4563;54.756;9.400;2022-09-01T14:10:41;32.00;37.40
9057;DHT22;4563;54.756;9.400;2022-09-01T14:13:11;31.80;37.60
9057;DHT22;4563;54.756;9.400;2022-09-01T14:15:38;31.70;38.00
9057;DHT22;4563;54.756;9.400;2022-09-01T14:18:06;31.60;37.90
9057;DHT22;4563;54.756;9.400;2022-09-01T14:20:34;31.50;38.10
9057;DHT22;4563;54.756;9.400;2022-09-01T14:23:05;31.30;38.30
9057;DHT22;4563;54.756;9.400;2022-09-01T14:25:32;31.10;38.20
9057;DHT22;4563;54.756;9.400;2022-09-01T14:28:00;31.00;38.50
9057;DHT22;4563;54.756;9.400;2022-09-01T14:30:31;30.90;38.60
9057;DHT22;4563;54.756;9.400;2022-09-01T14:32:59;30.80;39.10
9057;DHT22;4563;54.756;9.400;2022-09-01T14:35:27;30.60;39.60
9057;DHT22;4563;54.756;9.400;2022-09-01T14:37:58;30.50;39.10
9057;DHT22;4563;54.756;9.400;2022-09-01T14:40:25;30.30;39.30
9057;DHT22;4563;54.756;9.400;2022-09-01T14:42:53;30.20;39.30
9057;DHT22;4563;54.756;9.400;2022-09-01T14:45:22;30.10;39.50
9057;DHT22;4563;54.756;9.400;2022-09-01T14:47:52;29.90;39.60
9057;DHT22;4563;54.756;9.400;2022-09-01T14:50:20;29.80;39.90
9057;DHT22;4563;54.756;9.400;2022-09-01T14:52:49;29.70;39.90
9057;DHT22;4563;54.756;9.400;2022-09-01T14:55:17;29.50;39.80
9057;DHT22;4563;54.756;9.400;2022-09-01T14:57:44;29.30;40.00
9057;DHT22;4563;54.756;9.400;2022-09-01T15:00:12;29.30;40.90
9057;DHT22;4563;54.756;9.400;2022-09-01T15:02:40;29.10;40.30
9057;DHT22;4563;54.756;9.400;2022-09-01T15:05:10;29.00;40.50
9057;DHT22;4563;54.756;9.400;2022-09-01T15:07:38;28.90;40.80
9057;DHT22;4563;54.756;9.400;2022-09-01T15:10:07;28.80;40.80
9057;DHT22;4563;54.756;9.400;2022-09-01T15:12:34;28.60;40.70
9057;DHT22;4563;54.756;9.400;2022-09-01T15:15:05;28.50;41.10
9057;DHT22;4563;54.756;9.400;2022-09-01T15:17:33;28.40;41.10
9057;DHT22;4563;54.756;9.400;2022-09-01T15:20:00;28.30;41.40
9057;DHT22;4563;54.756;9.400;2022-09-01T15:22:43;28.20;41.30
9057;DHT22;4563;54.756;9.400;2022-09-01T15:25:11;28.00;41.40
9057;DHT22;4563;54.756;9.400;2022-09-01T15:27:38;27.90;41.60
9057;DHT22;4563;54.756;9.400;2022-09-01T15:30:06;27.90;41.80
9057;DHT22;4563;54.756;9.400;2022-09-01T15:32:40;27.70;41.80
9057;DHT22;4563;54.756;9.400;2022-09-01T15:35:07;27.70;42.10
9057;DHT22;4563;54.756;9.400;2022-09-01T15:37:34;27.50;42.00
9057;DHT22;4563;54.756;9.400;2022-09-01T15:40:04;27.40;42.20
9057;DHT22;4563;54.756;9.400;2022-09-01T15:42:32;27.30;42.30
9057;DHT22;4563;54.756;9.400;2022-09-01T15:45:00;27.20;42.30
9057;DHT22;4563;54.756;9.400;2022-09-01T15:47:28;27.10;42.50
9057;DHT22;4563;54.756;9.400;2022-09-01T15:49:56;27.00;42.60
9057;DHT22;4563;54.756;9.400;2022-09-01T15:52:23;26.90;42.80
9057;DHT22;4563;54.756;9.400;2022-09-01T15:54:50;26.80;42.80
9057;DHT22;4563;54.756;9.400;2022-09-01T15:57:18;26.70;42.80
9057;DHT22;4563;54.756;9.400;2022-09-01T15:59:45;26.60;43.00
9057;DHT22;4563;54.756;9.400;2022-09-01T16:02:12;26.50;43.00
9057;DHT22;4563;54.756;9.400;2022-09-01T16:04:42;26.40;43.20
9057;DHT22;4563;54.756;9.400;2022-09-01T16:07:09;26.40;43.20
9057;DHT22;4563;54.756;9.400;2022-09-01T16:09:36;26.20;43.20
9057;DHT22;4563;54.756;9.400;2022-09-01T16:12:03;26.20;43.50
9057;DHT22;4563;54.756;9.400;2022-09-01T16:14:32;26.10;43.60
9057;DHT22;4563;54.756;9.400;2022-09-01T16:17:02;26.00;43.60
9057;DHT22;4563;54.756;9.400;2022-09-01T16:19:36;25.90;43.50
9057;DHT22;4563;54.756;9.400;2022-09-01T16:22:10;25.80;43.70
9057;DHT22;4563;54.756;9.400;2022-09-01T16:24:41;25.70;44.40
9057;DHT22;4563;54.756;9.400;2022-09-01T16:27:12;25.70;43.90
9057;DHT22;4563;54.756;9.400;2022-09-01T16:29:46;25.60;43.90
9057;DHT22;4563;54.756;9.400;2022-09-01T16:32:14;25.50;44.30
9057;DHT22;4563;54.756;9.400;2022-09-01T16:34:42;25.50;43.90
9057;DHT22;4563;54.756;9.400;2022-09-01T16:37:20;25.40;43.90
9057;DHT22;4563;54.756;9.400;2022-09-01T16:39:57;25.30;44.70
9057;DHT22;4563;54.756;9.400;2022-09-01T16:42:29;25.30;44.10
9057;DHT22;4563;54.756;9.400;2022-09-01T16:45:09;25.20;44.00
9057;DHT22;4563;54.756;9.400;2022-09-01T16:47:56;25.10;44.80